KSRB  Upper Cumberland Regional Airport

Add Bookmark

Sparta, Tennessee, United States

Status Useage
Operational Public
Latitude Longitude
36° 3' 24" N 85° 31' 48" W
36.056739 -85.530108
Local (DST -5) UTC (GMT -6)
Nov 24, 2014 10:02 Nov 24, 2014 16:02
Sunrise-Sunset Local UTC
Begin Civil Twilight 05:59 11:59
Sunrise 06:27 12:27
Sunset 04:30 22:30
End Civil Twilight 04:58 22:58

Current Weather

METAR Observed VFR
KSRB 241555Z AUTO 27012KT 10SM SCT040 BKN048 BKN060 17/09 A2971 Mon, Nov 24, 2014 @ 15:55 UTC
(7 Minutes ago)
Visual Flight Rules
Wind Visibility Clouds Conditions
270° at 12 knots (14 mph) 10 statute miles
  • Scattered at 4,000' AGL
  • Broken at 4,800' AGL
  • Broken at 6,000' AGL
  • No significant weather
Temperatures Readings Precipitation
Current Temp 17°C (63°F)
Dewpoint 9°C (48°F)
Humidity 59%
Altimeter 29.71"Hg
Sea Level Pressure 1006mb
None Recorded

Additional weather within a 50nm radius of KSRB

Map ICAO Location
KCSV 22.5nm E (106°)
KRNC 26.3nm S (215°)
KMQY 48.1nm W (267°)

24 Hour Weather History

Loading
-

24 Hour Weather Graphs

Loading
-

CheckWX.com is intended as a tool to help pilots better visualize weather data. It is not intended as a substitute for an official weather briefing obtained from a Flight Service Station. CheckWX.com does not meet the FAA requirements for an official pre-flight weather briefing. Therefore, it's important that pilots still call and obtain an official FSS pre-flight weather briefing.